Accueil
METAR-TAF:

METAR-TAF

Aéroports :

St Athan, Pays de Galles

latitude: 51-24N, longitude: 003-26W, altitude: 50 m

Observation

Le bulletin a été fait il y a 1 heure et 13 minutes, à 03:50 UTC
Vent 12 kt de est/nord-est
Température 5°C
Humidité 75%
Pression 1023 hPa
Visibilité 10 km ou plus

METAR: EGDX 190350Z AUTO 06012KT 9999 NCD 05/01 Q1023

Heure: 05:03 (05:03 UTC)

Prévision

Le bulletin a été fait il y a 15 heures et 29 minutes, à 13:34 UTC
Prévision valable du 18 à 15 UTC au 18 à 24 UTC
Vent 16 kt de est
Visibilité 10 km ou plus
pas de nuages en-dessous de 1500 mètres et pas de cumulonimbus.
Probabilité 40% :
Temporairement
du 18 à 15 UTC au 18 à 18 UTC
Vent 20 kt de est/nord-est avec des rafales jusqu'à 30 kt

TAF: EGDX 181334Z 1815/1824 08016KT CAVOK PROB40 TEMPO 1815/1818 07020G30KT

Observations et prévisions météorologiques de plus de 4000 aéroports (messages METAR et TAF).

Les stations disponibles sont représentées par des disques jaunes et rouges sur la carte.

Passer la souris dessus pour voir le nom de la station.

Cliquer dessus pour voir les observations et prévisions météorologiques.

Pour changer de carte: cliquez sur les boutons verts avec une croix noire pour zoomer, sur le bouton vert avec un tiret pour effectuer un zoom arrière, ou sur les flèches vertes pour les cartes adjacentes.


METAR-TAF: